sensor_id;sensor_type;location;lat;lon;timestamp;temperature;humidity
19292;DHT22;9779;51.756;7.450;2023-06-24T00:02:12;19.80;1.00
19292;DHT22;9779;51.756;7.450;2023-06-24T00:04:38;19.80;1.00
19292;DHT22;9779;51.756;7.450;2023-06-24T00:07:04;19.80;1.00
19292;DHT22;9779;51.756;7.450;2023-06-24T00:09:30;19.80;1.00
19292;DHT22;9779;51.756;7.450;2023-06-24T00:11:57;19.70;1.00
19292;DHT22;9779;51.756;7.450;2023-06-24T00:14:26;19.60;1.00
19292;DHT22;9779;51.756;7.450;2023-06-24T00:16:53;19.50;1.00
19292;DHT22;9779;51.756;7.450;2023-06-24T00:19:20;19.50;1.00
19292;DHT22;9779;51.756;7.450;2023-06-24T00:21:47;19.50;1.00
19292;DHT22;9779;51.756;7.450;2023-06-24T00:24:13;19.40;1.00
19292;DHT22;9779;51.756;7.450;2023-06-24T00:26:38;19.40;1.00
19292;DHT22;9779;51.756;7.450;2023-06-24T00:29:04;19.40;1.00
19292;DHT22;9779;51.756;7.450;2023-06-24T00:31:29;19.40;1.00
19292;DHT22;9779;51.756;7.450;2023-06-24T00:33:55;19.30;1.00
19292;DHT22;9779;51.756;7.450;2023-06-24T00:36:21;19.30;1.00
19292;DHT22;9779;51.756;7.450;2023-06-24T00:38:46;19.20;1.00
19292;DHT22;9779;51.756;7.450;2023-06-24T00:41:14;19.20;1.00
19292;DHT22;9779;51.756;7.450;2023-06-24T00:43:41;19.10;1.00
19292;DHT22;9779;51.756;7.450;2023-06-24T00:46:07;19.10;1.00
19292;DHT22;9779;51.756;7.450;2023-06-24T00:48:32;19.10;1.00
19292;DHT22;9779;51.756;7.450;2023-06-24T00:50:58;19.10;1.00
19292;DHT22;9779;51.756;7.450;2023-06-24T00:53:26;19.10;1.00
19292;DHT22;9779;51.756;7.450;2023-06-24T00:55:53;19.10;1.00
19292;DHT22;9779;51.756;7.450;2023-06-24T00:58:21;19.00;1.00
19292;DHT22;9779;51.756;7.450;2023-06-24T01:00:47;19.00;1.00
19292;DHT22;9779;51.756;7.450;2023-06-24T01:03:23;19.00;1.00
19292;DHT22;9779;51.756;7.450;2023-06-24T01:05:50;18.90;1.00
19292;DHT22;9779;51.756;7.450;2023-06-24T01:08:16;18.90;1.00
19292;DHT22;9779;51.756;7.450;2023-06-24T01:10:42;18.80;1.00
19292;DHT22;9779;51.756;7.450;2023-06-24T01:13:08;18.80;1.00
19292;DHT22;9779;51.756;7.450;2023-06-24T01:15:35;18.80;1.00
19292;DHT22;9779;51.756;7.450;2023-06-24T01:18:02;18.70;1.00
19292;DHT22;9779;51.756;7.450;2023-06-24T01:25:54;18.60;1.00
19292;DHT22;9779;51.756;7.450;2023-06-24T01:31:37;18.50;1.00
19292;DHT22;9779;51.756;7.450;2023-06-24T01:34:10;18.40;1.00
19292;DHT22;9779;51.756;7.450;2023-06-24T01:36:39;18.50;1.00
19292;DHT22;9779;51.756;7.450;2023-06-24T01:39:08;18.50;1.00
19292;DHT22;9779;51.756;7.450;2023-06-24T01:41:40;18.40;1.00
19292;DHT22;9779;51.756;7.450;2023-06-24T01:44:09;18.30;1.00
19292;DHT22;9779;51.756;7.450;2023-06-24T01:46:36;18.30;1.00
19292;DHT22;9779;51.756;7.450;2023-06-24T01:49:04;18.30;1.00
19292;DHT22;9779;51.756;7.450;2023-06-24T01:51:33;18.10;1.00
19292;DHT22;9779;51.756;7.450;2023-06-24T01:54:06;18.10;1.00
19292;DHT22;9779;51.756;7.450;2023-06-24T01:56:33;18.10;1.00
19292;DHT22;9779;51.756;7.450;2023-06-24T01:59:02;18.10;1.00
19292;DHT22;9779;51.756;7.450;2023-06-24T02:01:32;18.20;1.00
19292;DHT22;9779;51.756;7.450;2023-06-24T02:04:00;18.10;1.00
19292;DHT22;9779;51.756;7.450;2023-06-24T02:06:28;18.20;1.00
19292;DHT22;9779;51.756;7.450;2023-06-24T02:08:56;18.20;1.00
19292;DHT22;9779;51.756;7.450;2023-06-24T02:11:24;18.20;1.00
19292;DHT22;9779;51.756;7.450;2023-06-24T02:13:51;18.10;1.00
19292;DHT22;9779;51.756;7.450;2023-06-24T02:16:20;18.00;1.00
19292;DHT22;9779;51.756;7.450;2023-06-24T02:18:46;17.80;1.00
19292;DHT22;9779;51.756;7.450;2023-06-24T02:21:16;17.80;5.20
19292;DHT22;9779;51.756;7.450;2023-06-24T02:23:42;17.90;18.30
19292;DHT22;9779;51.756;7.450;2023-06-24T02:26:08;17.90;16.90
19292;DHT22;9779;51.756;7.450;2023-06-24T02:28:35;17.90;23.90
19292;DHT22;9779;51.756;7.450;2023-06-24T02:31:03;17.70;16.50
19292;DHT22;9779;51.756;7.450;2023-06-24T02:33:29;17.80;5.80
19292;DHT22;9779;51.756;7.450;2023-06-24T02:35:55;17.90;1.00
19292;DHT22;9779;51.756;7.450;2023-06-24T02:38:20;17.80;1.00
19292;DHT22;9779;51.756;7.450;2023-06-24T02:40:46;17.80;16.30
19292;DHT22;9779;51.756;7.450;2023-06-24T02:43:13;17.60;27.50
19292;DHT22;9779;51.756;7.450;2023-06-24T02:45:39;17.50;29.80
19292;DHT22;9779;51.756;7.450;2023-06-24T02:48:06;17.60;32.20
19292;DHT22;9779;51.756;7.450;2023-06-24T02:50:33;17.60;21.70
19292;DHT22;9779;51.756;7.450;2023-06-24T02:52:59;17.60;16.40
19292;DHT22;9779;51.756;7.450;2023-06-24T02:55:26;17.70;29.90
19292;DHT22;9779;51.756;7.450;2023-06-24T02:57:53;17.50;75.30
19292;DHT22;9779;51.756;7.450;2023-06-24T03:00:19;17.60;54.10
19292;DHT22;9779;51.756;7.450;2023-06-24T03:02:46;17.60;28.60
19292;DHT22;9779;51.756;7.450;2023-06-24T03:05:14;17.60;34.30
19292;DHT22;9779;51.756;7.450;2023-06-24T03:07:41;17.50;48.20
19292;DHT22;9779;51.756;7.450;2023-06-24T03:10:07;17.50;85.10
19292;DHT22;9779;51.756;7.450;2023-06-24T03:12:33;17.50;91.80
19292;DHT22;9779;51.756;7.450;2023-06-24T03:14:59;17.40;99.90
19292;DHT22;9779;51.756;7.450;2023-06-24T03:17:26;17.50;90.40
19292;DHT22;9779;51.756;7.450;2023-06-24T03:19:52;17.40;71.60
19292;DHT22;9779;51.756;7.450;2023-06-24T03:22:17;17.40;74.80
19292;DHT22;9779;51.756;7.450;2023-06-24T03:24:43;17.40;73.90
19292;DHT22;9779;51.756;7.450;2023-06-24T03:27:09;17.40;68.70
19292;DHT22;9779;51.756;7.450;2023-06-24T03:29:35;17.30;93.50
19292;DHT22;9779;51.756;7.450;2023-06-24T03:32:00;17.30;99.90
19292;DHT22;9779;51.756;7.450;2023-06-24T03:34:26;17.40;99.90
19292;DHT22;9779;51.756;7.450;2023-06-24T03:36:53;17.30;99.90
19292;DHT22;9779;51.756;7.450;2023-06-24T03:39:22;17.40;99.90
19292;DHT22;9779;51.756;7.450;2023-06-24T03:41:48;17.40;99.90
19292;DHT22;9779;51.756;7.450;2023-06-24T03:44:13;17.50;99.90
19292;DHT22;9779;51.756;7.450;2023-06-24T03:46:39;17.30;99.90
19292;DHT22;9779;51.756;7.450;2023-06-24T03:49:05;17.40;99.90
19292;DHT22;9779;51.756;7.450;2023-06-24T03:51:30;17.30;99.90
19292;DHT22;9779;51.756;7.450;2023-06-24T03:53:56;17.50;99.90
19292;DHT22;9779;51.756;7.450;2023-06-24T03:56:22;17.40;99.90
19292;DHT22;9779;51.756;7.450;2023-06-24T03:58:47;17.40;99.90
19292;DHT22;9779;51.756;7.450;2023-06-24T04:01:13;17.40;99.90
19292;DHT22;9779;51.756;7.450;2023-06-24T04:03:38;17.40;99.90
19292;DHT22;9779;51.756;7.450;2023-06-24T04:06:04;17.40;99.90
19292;DHT22;9779;51.756;7.450;2023-06-24T04:08:30;17.40;99.90
19292;DHT22;9779;51.756;7.450;2023-06-24T04:10:59;17.40;99.90
19292;DHT22;9779;51.756;7.450;2023-06-24T04:13:29;17.50;99.90
19292;DHT22;9779;51.756;7.450;2023-06-24T04:15:55;17.60;99.90
19292;DHT22;9779;51.756;7.450;2023-06-24T04:18:20;17.50;99.90
19292;DHT22;9779;51.756;7.450;2023-06-24T04:20:46;17.60;99.90
19292;DHT22;9779;51.756;7.450;2023-06-24T04:23:12;17.40;99.90
19292;DHT22;9779;51.756;7.450;2023-06-24T04:25:39;17.40;99.90
19292;DHT22;9779;51.756;7.450;2023-06-24T04:28:05;17.40;99.90
19292;DHT22;9779;51.756;7.450;2023-06-24T04:30:31;17.50;99.90
19292;DHT22;9779;51.756;7.450;2023-06-24T04:32:57;17.50;99.90
19292;DHT22;9779;51.756;7.450;2023-06-24T04:35:24;17.50;99.90
19292;DHT22;9779;51.756;7.450;2023-06-24T04:37:50;17.30;99.90
19292;DHT22;9779;51.756;7.450;2023-06-24T04:40:17;17.50;99.90
19292;DHT22;9779;51.756;7.450;2023-06-24T04:42:42;17.50;99.90
19292;DHT22;9779;51.756;7.450;2023-06-24T04:45:08;17.70;99.90
19292;DHT22;9779;51.756;7.450;2023-06-24T04:47:34;17.50;99.90
19292;DHT22;9779;51.756;7.450;2023-06-24T04:49:59;17.60;99.90
19292;DHT22;9779;51.756;7.450;2023-06-24T04:52:25;17.50;99.90
19292;DHT22;9779;51.756;7.450;2023-06-24T04:54:50;17.50;99.90
19292;DHT22;9779;51.756;7.450;2023-06-24T04:57:27;17.50;99.90
19292;DHT22;9779;51.756;7.450;2023-06-24T04:59:53;17.70;99.90
19292;DHT22;9779;51.756;7.450;2023-06-24T05:02:18;17.60;99.90
19292;DHT22;9779;51.756;7.450;2023-06-24T05:04:44;17.60;99.90
19292;DHT22;9779;51.756;7.450;2023-06-24T05:07:09;17.80;99.90
19292;DHT22;9779;51.756;7.450;2023-06-24T05:09:35;17.70;99.90
19292;DHT22;9779;51.756;7.450;2023-06-24T05:12:04;17.60;99.90
19292;DHT22;9779;51.756;7.450;2023-06-24T05:14:29;17.80;99.90
19292;DHT22;9779;51.756;7.450;2023-06-24T05:16:55;17.70;99.90
19292;DHT22;9779;51.756;7.450;2023-06-24T05:19:20;17.80;99.90
19292;DHT22;9779;51.756;7.450;2023-06-24T05:21:46;17.70;99.90
19292;DHT22;9779;51.756;7.450;2023-06-24T05:24:11;17.70;99.90
19292;DHT22;9779;51.756;7.450;2023-06-24T05:26:37;18.00;99.90
19292;DHT22;9779;51.756;7.450;2023-06-24T05:29:02;17.90;99.90
19292;DHT22;9779;51.756;7.450;2023-06-24T05:31:28;18.10;99.90
19292;DHT22;9779;51.756;7.450;2023-06-24T05:33:54;18.10;99.90
19292;DHT22;9779;51.756;7.450;2023-06-24T05:36:19;18.10;99.90
19292;DHT22;9779;51.756;7.450;2023-06-24T05:38:45;18.10;99.90
19292;DHT22;9779;51.756;7.450;2023-06-24T05:41:11;18.10;99.90
19292;DHT22;9779;51.756;7.450;2023-06-24T05:43:36;18.30;99.90
19292;DHT22;9779;51.756;7.450;2023-06-24T05:46:02;18.40;99.90
19292;DHT22;9779;51.756;7.450;2023-06-24T05:48:27;18.20;99.90
19292;DHT22;9779;51.756;7.450;2023-06-24T05:50:53;18.30;99.90
19292;DHT22;9779;51.756;7.450;2023-06-24T05:53:18;18.40;99.90
19292;DHT22;9779;51.756;7.450;2023-06-24T05:55:44;18.30;99.90
19292;DHT22;9779;51.756;7.450;2023-06-24T05:58:09;18.40;99.90
19292;DHT22;9779;51.756;7.450;2023-06-24T06:00:36;18.60;99.90
19292;DHT22;9779;51.756;7.450;2023-06-24T06:03:02;18.60;99.90
19292;DHT22;9779;51.756;7.450;2023-06-24T06:05:27;18.60;99.90
19292;DHT22;9779;51.756;7.450;2023-06-24T06:07:53;18.60;99.90
19292;DHT22;9779;51.756;7.450;2023-06-24T06:10:19;18.60;99.90
19292;DHT22;9779;51.756;7.450;2023-06-24T06:12:45;18.70;99.90
19292;DHT22;9779;51.756;7.450;2023-06-24T06:15:10;18.70;99.90
19292;DHT22;9779;51.756;7.450;2023-06-24T06:17:37;18.70;99.90
19292;DHT22;9779;51.756;7.450;2023-06-24T06:20:02;18.80;99.90
19292;DHT22;9779;51.756;7.450;2023-06-24T06:22:29;19.00;99.90
19292;DHT22;9779;51.756;7.450;2023-06-24T06:24:54;19.00;99.90
19292;DHT22;9779;51.756;7.450;2023-06-24T06:27:20;19.00;99.90
19292;DHT22;9779;51.756;7.450;2023-06-24T06:29:45;19.10;99.90
19292;DHT22;9779;51.756;7.450;2023-06-24T06:32:11;19.20;99.90
19292;DHT22;9779;51.756;7.450;2023-06-24T06:34:36;19.30;99.90
19292;DHT22;9779;51.756;7.450;2023-06-24T06:37:02;19.40;99.90
19292;DHT22;9779;51.756;7.450;2023-06-24T06:39:27;19.40;28.60
19292;DHT22;9779;51.756;7.450;2023-06-24T06:41:53;19.40;3.10
19292;DHT22;9779;51.756;7.450;2023-06-24T06:44:19;19.50;1.00
19292;DHT22;9779;51.756;7.450;2023-06-24T06:46:44;19.60;1.00
19292;DHT22;9779;51.756;7.450;2023-06-24T06:49:10;19.70;1.00
19292;DHT22;9779;51.756;7.450;2023-06-24T06:51:35;19.70;1.00
19292;DHT22;9779;51.756;7.450;2023-06-24T06:54:02;19.80;1.00
19292;DHT22;9779;51.756;7.450;2023-06-24T06:56:28;19.80;1.00
19292;DHT22;9779;51.756;7.450;2023-06-24T06:58:54;19.80;1.00
19292;DHT22;9779;51.756;7.450;2023-06-24T07:01:19;19.90;1.00
19292;DHT22;9779;51.756;7.450;2023-06-24T07:03:45;20.00;1.00
19292;DHT22;9779;51.756;7.450;2023-06-24T07:06:11;20.00;1.00
19292;DHT22;9779;51.756;7.450;2023-06-24T07:08:36;20.20;1.00
19292;DHT22;9779;51.756;7.450;2023-06-24T07:11:02;20.30;1.00
19292;DHT22;9779;51.756;7.450;2023-06-24T07:13:28;20.30;1.00
19292;DHT22;9779;51.756;7.450;2023-06-24T07:15:54;20.40;1.00
19292;DHT22;9779;51.756;7.450;2023-06-24T07:18:19;20.50;1.00
19292;DHT22;9779;51.756;7.450;2023-06-24T07:20:45;20.60;1.00
19292;DHT22;9779;51.756;7.450;2023-06-24T07:23:10;20.70;1.00
19292;DHT22;9779;51.756;7.450;2023-06-24T07:25:36;20.80;1.00
19292;DHT22;9779;51.756;7.450;2023-06-24T07:28:02;20.80;1.00
19292;DHT22;9779;51.756;7.450;2023-06-24T07:30:28;20.90;99.90
19292;DHT22;9779;51.756;7.450;2023-06-24T07:32:53;21.00;1.00
19292;DHT22;9779;51.756;7.450;2023-06-24T07:35:19;21.00;1.00
19292;DHT22;9779;51.756;7.450;2023-06-24T07:37:45;21.10;99.90
19292;DHT22;9779;51.756;7.450;2023-06-24T07:40:10;21.10;99.90
19292;DHT22;9779;51.756;7.450;2023-06-24T07:42:36;21.10;99.90
19292;DHT22;9779;51.756;7.450;2023-06-24T07:45:02;21.10;99.90
19292;DHT22;9779;51.756;7.450;2023-06-24T07:47:27;21.20;99.90
19292;DHT22;9779;51.756;7.450;2023-06-24T07:49:53;21.30;99.90
19292;DHT22;9779;51.756;7.450;2023-06-24T07:52:19;21.40;1.00
19292;DHT22;9779;51.756;7.450;2023-06-24T07:54:44;21.40;99.90
19292;DHT22;9779;51.756;7.450;2023-06-24T07:57:10;21.50;99.90
19292;DHT22;9779;51.756;7.450;2023-06-24T07:59:35;21.70;99.90
19292;DHT22;9779;51.756;7.450;2023-06-24T08:02:01;21.80;99.90
19292;DHT22;9779;51.756;7.450;2023-06-24T08:04:26;21.90;99.90
19292;DHT22;9779;51.756;7.450;2023-06-24T08:06:52;22.00;1.00
19292;DHT22;9779;51.756;7.450;2023-06-24T08:09:18;22.10;1.00
19292;DHT22;9779;51.756;7.450;2023-06-24T08:11:43;22.20;1.00
19292;DHT22;9779;51.756;7.450;2023-06-24T08:14:09;22.20;1.00
19292;DHT22;9779;51.756;7.450;2023-06-24T08:16:34;22.30;1.00
19292;DHT22;9779;51.756;7.450;2023-06-24T08:19:00;22.40;1.00
19292;DHT22;9779;51.756;7.450;2023-06-24T08:21:26;22.60;99.90
19292;DHT22;9779;51.756;7.450;2023-06-24T08:23:51;22.80;1.00
19292;DHT22;9779;51.756;7.450;2023-06-24T08:26:19;22.90;99.90
19292;DHT22;9779;51.756;7.450;2023-06-24T08:28:47;22.90;1.00
19292;DHT22;9779;51.756;7.450;2023-06-24T08:31:13;23.10;1.00
19292;DHT22;9779;51.756;7.450;2023-06-24T08:33:39;23.30;1.00
19292;DHT22;9779;51.756;7.450;2023-06-24T08:36:04;23.30;1.00
19292;DHT22;9779;51.756;7.450;2023-06-24T08:38:30;23.30;99.90
19292;DHT22;9779;51.756;7.450;2023-06-24T08:40:56;23.30;1.00
19292;DHT22;9779;51.756;7.450;2023-06-24T08:43:21;23.30;1.00
19292;DHT22;9779;51.756;7.450;2023-06-24T08:45:47;23.20;1.00
19292;DHT22;9779;51.756;7.450;2023-06-24T08:48:13;23.30;99.90
19292;DHT22;9779;51.756;7.450;2023-06-24T08:50:44;23.30;99.90
19292;DHT22;9779;51.756;7.450;2023-06-24T08:53:12;23.40;99.90
19292;DHT22;9779;51.756;7.450;2023-06-24T08:55:45;23.50;99.90
19292;DHT22;9779;51.756;7.450;2023-06-24T08:58:12;23.60;99.90
19292;DHT22;9779;51.756;7.450;2023-06-24T09:00:38;23.70;99.90
19292;DHT22;9779;51.756;7.450;2023-06-24T09:03:03;24.00;99.90
19292;DHT22;9779;51.756;7.450;2023-06-24T09:05:29;24.20;1.00
19292;DHT22;9779;51.756;7.450;2023-06-24T09:07:54;24.20;99.90
19292;DHT22;9779;51.756;7.450;2023-06-24T09:10:33;24.20;99.90
19292;DHT22;9779;51.756;7.450;2023-06-24T09:13:04;24.40;99.90
19292;DHT22;9779;51.756;7.450;2023-06-24T09:15:38;24.10;1.00
19292;DHT22;9779;51.756;7.450;2023-06-24T09:18:05;24.00;99.90
19292;DHT22;9779;51.756;7.450;2023-06-24T09:20:31;24.40;99.90
19292;DHT22;9779;51.756;7.450;2023-06-24T09:22:59;24.20;99.90
19292;DHT22;9779;51.756;7.450;2023-06-24T09:25:25;24.60;99.90
19292;DHT22;9779;51.756;7.450;2023-06-24T09:27:50;24.70;99.90
19292;DHT22;9779;51.756;7.450;2023-06-24T09:30:22;25.10;99.90
19292;DHT22;9779;51.756;7.450;2023-06-24T09:32:49;24.90;99.90
19292;DHT22;9779;51.756;7.450;2023-06-24T09:35:18;25.30;99.90
19292;DHT22;9779;51.756;7.450;2023-06-24T09:37:49;25.40;99.90
19292;DHT22;9779;51.756;7.450;2023-06-24T09:40:14;25.40;1.00
19292;DHT22;9779;51.756;7.450;2023-06-24T09:42:58;25.50;99.90
19292;DHT22;9779;51.756;7.450;2023-06-24T09:45:27;25.70;1.00
19292;DHT22;9779;51.756;7.450;2023-06-24T09:47:54;25.70;1.00
19292;DHT22;9779;51.756;7.450;2023-06-24T09:50:20;25.80;99.90
19292;DHT22;9779;51.756;7.450;2023-06-24T09:52:46;25.80;99.90
19292;DHT22;9779;51.756;7.450;2023-06-24T09:55:14;25.80;1.00
19292;DHT22;9779;51.756;7.450;2023-06-24T09:57:42;25.60;99.90
19292;DHT22;9779;51.756;7.450;2023-06-24T10:00:10;25.40;1.00
19292;DHT22;9779;51.756;7.450;2023-06-24T10:02:36;25.20;1.00
19292;DHT22;9779;51.756;7.450;2023-06-24T10:05:02;25.20;1.00
19292;DHT22;9779;51.756;7.450;2023-06-24T10:07:28;25.40;1.00
19292;DHT22;9779;51.756;7.450;2023-06-24T10:09:54;25.40;99.90
19292;DHT22;9779;51.756;7.450;2023-06-24T10:12:20;25.60;1.00
19292;DHT22;9779;51.756;7.450;2023-06-24T10:14:46;25.70;1.00
19292;DHT22;9779;51.756;7.450;2023-06-24T10:17:12;25.80;1.00
19292;DHT22;9779;51.756;7.450;2023-06-24T10:19:39;25.90;1.00
19292;DHT22;9779;51.756;7.450;2023-06-24T10:22:09;26.00;1.00
19292;DHT22;9779;51.756;7.450;2023-06-24T10:24:38;26.00;99.90
19292;DHT22;9779;51.756;7.450;2023-06-24T10:29:39;26.10;1.00
19292;DHT22;9779;51.756;7.450;2023-06-24T10:32:05;26.50;1.00
19292;DHT22;9779;51.756;7.450;2023-06-24T10:37:04;26.20;99.90
19292;DHT22;9779;51.756;7.450;2023-06-24T10:44:50;26.40;99.90
19292;DHT22;9779;51.756;7.450;2023-06-24T10:47:16;26.80;99.90
19292;DHT22;9779;51.756;7.450;2023-06-24T10:49:42;26.80;1.00
19292;DHT22;9779;51.756;7.450;2023-06-24T10:52:10;26.60;1.00
19292;DHT22;9779;51.756;7.450;2023-06-24T10:54:40;26.60;57.00
19292;DHT22;9779;51.756;7.450;2023-06-24T10:57:07;26.70;1.00
19292;DHT22;9779;51.756;7.450;2023-06-24T10:59:39;26.70;1.00
19292;DHT22;9779;51.756;7.450;2023-06-24T11:02:07;26.20;99.90
19292;DHT22;9779;51.756;7.450;2023-06-24T11:04:32;26.40;1.00
19292;DHT22;9779;51.756;7.450;2023-06-24T11:07:02;26.60;1.00
19292;DHT22;9779;51.756;7.450;2023-06-24T11:09:27;27.10;1.00
19292;DHT22;9779;51.756;7.450;2023-06-24T11:11:53;27.30;1.00
19292;DHT22;9779;51.756;7.450;2023-06-24T11:14:22;27.60;1.00
19292;DHT22;9779;51.756;7.450;2023-06-24T11:16:48;27.70;16.40
19292;DHT22;9779;51.756;7.450;2023-06-24T11:19:13;27.90;1.00
19292;DHT22;9779;51.756;7.450;2023-06-24T11:21:39;28.20;1.00
19292;DHT22;9779;51.756;7.450;2023-06-24T11:24:05;28.40;1.00
19292;DHT22;9779;51.756;7.450;2023-06-24T11:26:32;28.70;1.00
19292;DHT22;9779;51.756;7.450;2023-06-24T11:28:57;28.80;1.00
19292;DHT22;9779;51.756;7.450;2023-06-24T11:31:26;28.90;99.90
19292;DHT22;9779;51.756;7.450;2023-06-24T11:33:51;29.30;1.00
19292;DHT22;9779;51.756;7.450;2023-06-24T11:36:20;29.10;99.90
19292;DHT22;9779;51.756;7.450;2023-06-24T11:38:46;29.20;99.90
19292;DHT22;9779;51.756;7.450;2023-06-24T11:41:12;29.10;99.90
19292;DHT22;9779;51.756;7.450;2023-06-24T11:43:43;29.40;99.90
19292;DHT22;9779;51.756;7.450;2023-06-24T11:46:08;29.50;99.90
19292;DHT22;9779;51.756;7.450;2023-06-24T11:48:39;29.60;1.00
19292;DHT22;9779;51.756;7.450;2023-06-24T11:51:12;29.80;1.00
19292;DHT22;9779;51.756;7.450;2023-06-24T11:53:43;29.80;1.00
19292;DHT22;9779;51.756;7.450;2023-06-24T11:56:09;30.10;1.00
19292;DHT22;9779;51.756;7.450;2023-06-24T11:58:35;30.40;1.00
19292;DHT22;9779;51.756;7.450;2023-06-24T12:01:03;30.50;1.00
19292;DHT22;9779;51.756;7.450;2023-06-24T12:03:32;30.70;1.00
19292;DHT22;9779;51.756;7.450;2023-06-24T12:05:59;30.90;1.00
19292;DHT22;9779;51.756;7.450;2023-06-24T12:08:24;30.90;1.00
19292;DHT22;9779;51.756;7.450;2023-06-24T12:10:51;31.00;1.00
19292;DHT22;9779;51.756;7.450;2023-06-24T12:13:16;31.10;1.00
19292;DHT22;9779;51.756;7.450;2023-06-24T12:15:42;31.50;1.00
19292;DHT22;9779;51.756;7.450;2023-06-24T12:18:07;31.70;1.00
19292;DHT22;9779;51.756;7.450;2023-06-24T12:20:33;31.60;1.00
19292;DHT22;9779;51.756;7.450;2023-06-24T12:23:00;31.40;1.00
19292;DHT22;9779;51.756;7.450;2023-06-24T12:25:26;31.10;1.00
19292;DHT22;9779;51.756;7.450;2023-06-24T12:27:51;31.10;1.00
19292;DHT22;9779;51.756;7.450;2023-06-24T12:30:17;31.30;1.00
19292;DHT22;9779;51.756;7.450;2023-06-24T12:32:43;31.50;1.00
19292;DHT22;9779;51.756;7.450;2023-06-24T12:35:09;31.70;1.00
19292;DHT22;9779;51.756;7.450;2023-06-24T12:37:35;32.10;1.00
19292;DHT22;9779;51.756;7.450;2023-06-24T12:40:02;32.40;1.00
19292;DHT22;9779;51.756;7.450;2023-06-24T12:42:28;32.30;1.00
19292;DHT22;9779;51.756;7.450;2023-06-24T12:44:54;32.20;1.00
19292;DHT22;9779;51.756;7.450;2023-06-24T12:47:21;32.50;1.00
19292;DHT22;9779;51.756;7.450;2023-06-24T12:49:46;32.20;1.00
19292;DHT22;9779;51.756;7.450;2023-06-24T12:52:13;32.00;1.00
19292;DHT22;9779;51.756;7.450;2023-06-24T12:54:39;32.20;1.00
19292;DHT22;9779;51.756;7.450;2023-06-24T12:57:05;32.10;1.00
19292;DHT22;9779;51.756;7.450;2023-06-24T12:59:31;32.30;1.00
19292;DHT22;9779;51.756;7.450;2023-06-24T13:01:56;32.50;1.00
19292;DHT22;9779;51.756;7.450;2023-06-24T13:04:22;32.60;1.00
19292;DHT22;9779;51.756;7.450;2023-06-24T13:06:50;32.90;1.00
19292;DHT22;9779;51.756;7.450;2023-06-24T13:09:16;33.10;1.00
19292;DHT22;9779;51.756;7.450;2023-06-24T13:11:42;33.20;1.00
19292;DHT22;9779;51.756;7.450;2023-06-24T13:14:07;33.40;1.00
19292;DHT22;9779;51.756;7.450;2023-06-24T13:19:01;33.10;99.90
19292;DHT22;9779;51.756;7.450;2023-06-24T13:21:27;32.70;99.90
19292;DHT22;9779;51.756;7.450;2023-06-24T13:23:52;32.80;99.90
19292;DHT22;9779;51.756;7.450;2023-06-24T13:26:18;32.80;99.90
19292;DHT22;9779;51.756;7.450;2023-06-24T13:28:43;33.00;99.90
19292;DHT22;9779;51.756;7.450;2023-06-24T13:31:11;33.90;99.90
19292;DHT22;9779;51.756;7.450;2023-06-24T13:33:37;33.80;99.90
19292;DHT22;9779;51.756;7.450;2023-06-24T13:36:04;33.30;99.90
19292;DHT22;9779;51.756;7.450;2023-06-24T13:38:32;33.40;99.90
19292;DHT22;9779;51.756;7.450;2023-06-24T13:40:57;33.70;99.90
19292;DHT22;9779;51.756;7.450;2023-06-24T13:43:23;33.80;99.90
19292;DHT22;9779;51.756;7.450;2023-06-24T13:45:50;33.60;99.90
19292;DHT22;9779;51.756;7.450;2023-06-24T13:48:16;34.40;99.90
19292;DHT22;9779;51.756;7.450;2023-06-24T13:50:41;34.50;52.20
19292;DHT22;9779;51.756;7.450;2023-06-24T13:53:07;34.60;1.00
19292;DHT22;9779;51.756;7.450;2023-06-24T13:55:33;34.30;1.00
19292;DHT22;9779;51.756;7.450;2023-06-24T13:57:58;34.40;1.00
19292;DHT22;9779;51.756;7.450;2023-06-24T14:00:24;33.80;1.00
19292;DHT22;9779;51.756;7.450;2023-06-24T14:02:50;33.50;1.00
19292;DHT22;9779;51.756;7.450;2023-06-24T14:05:16;33.60;1.00
19292;DHT22;9779;51.756;7.450;2023-06-24T14:07:42;33.80;1.00
19292;DHT22;9779;51.756;7.450;2023-06-24T14:10:07;33.90;1.00
19292;DHT22;9779;51.756;7.450;2023-06-24T14:12:33;33.80;1.00
19292;DHT22;9779;51.756;7.450;2023-06-24T14:14:58;34.10;1.00
19292;DHT22;9779;51.756;7.450;2023-06-24T14:17:24;34.10;1.00
19292;DHT22;9779;51.756;7.450;2023-06-24T14:19:50;34.80;1.00
19292;DHT22;9779;51.756;7.450;2023-06-24T14:22:15;34.80;1.00
19292;DHT22;9779;51.756;7.450;2023-06-24T14:24:42;34.40;1.00
19292;DHT22;9779;51.756;7.450;2023-06-24T14:27:08;34.60;1.00
19292;DHT22;9779;51.756;7.450;2023-06-24T14:29:33;34.30;1.00
19292;DHT22;9779;51.756;7.450;2023-06-24T14:31:59;34.60;1.00
19292;DHT22;9779;51.756;7.450;2023-06-24T14:34:25;34.70;1.00
19292;DHT22;9779;51.756;7.450;2023-06-24T14:36:50;34.80;1.00
19292;DHT22;9779;51.756;7.450;2023-06-24T14:39:16;34.70;1.00
19292;DHT22;9779;51.756;7.450;2023-06-24T14:41:42;35.20;1.00
19292;DHT22;9779;51.756;7.450;2023-06-24T14:44:08;35.20;1.00
19292;DHT22;9779;51.756;7.450;2023-06-24T14:46:34;35.30;1.00
19292;DHT22;9779;51.756;7.450;2023-06-24T14:48:59;35.00;1.00
19292;DHT22;9779;51.756;7.450;2023-06-24T14:51:25;35.60;1.00
19292;DHT22;9779;51.756;7.450;2023-06-24T14:53:50;35.30;1.00
19292;DHT22;9779;51.756;7.450;2023-06-24T14:56:16;35.90;1.00
19292;DHT22;9779;51.756;7.450;2023-06-24T14:58:42;35.90;1.00
19292;DHT22;9779;51.756;7.450;2023-06-24T15:01:07;35.90;1.00
19292;DHT22;9779;51.756;7.450;2023-06-24T15:03:33;35.20;1.00
19292;DHT22;9779;51.756;7.450;2023-06-24T15:05:58;36.00;1.00
19292;DHT22;9779;51.756;7.450;2023-06-24T15:08:24;35.80;1.00
19292;DHT22;9779;51.756;7.450;2023-06-24T15:10:52;35.40;1.00
19292;DHT22;9779;51.756;7.450;2023-06-24T15:13:17;35.80;1.00
19292;DHT22;9779;51.756;7.450;2023-06-24T15:15:43;35.30;1.00
19292;DHT22;9779;51.756;7.450;2023-06-24T15:18:09;35.70;1.00
19292;DHT22;9779;51.756;7.450;2023-06-24T15:20:34;35.50;1.00
19292;DHT22;9779;51.756;7.450;2023-06-24T15:23:00;34.90;1.00
19292;DHT22;9779;51.756;7.450;2023-06-24T15:25:25;35.50;1.00
19292;DHT22;9779;51.756;7.450;2023-06-24T15:27:52;35.60;1.00
19292;DHT22;9779;51.756;7.450;2023-06-24T15:30:18;35.60;1.00
19292;DHT22;9779;51.756;7.450;2023-06-24T15:32:44;35.80;1.00
19292;DHT22;9779;51.756;7.450;2023-06-24T15:35:11;36.10;1.00
19292;DHT22;9779;51.756;7.450;2023-06-24T15:37:37;35.80;1.00
19292;DHT22;9779;51.756;7.450;2023-06-24T15:40:02;35.80;1.00
19292;DHT22;9779;51.756;7.450;2023-06-24T15:42:28;35.90;1.00
19292;DHT22;9779;51.756;7.450;2023-06-24T15:44:54;35.80;1.00
19292;DHT22;9779;51.756;7.450;2023-06-24T15:47:19;35.80;1.00
19292;DHT22;9779;51.756;7.450;2023-06-24T15:49:45;35.80;1.00
19292;DHT22;9779;51.756;7.450;2023-06-24T15:52:10;36.10;1.00
19292;DHT22;9779;51.756;7.450;2023-06-24T15:54:36;35.90;1.00
19292;DHT22;9779;51.756;7.450;2023-06-24T15:57:01;35.80;1.00
19292;DHT22;9779;51.756;7.450;2023-06-24T15:59:27;35.40;1.00
19292;DHT22;9779;51.756;7.450;2023-06-24T16:01:53;35.70;1.00
19292;DHT22;9779;51.756;7.450;2023-06-24T16:04:18;35.60;1.00
19292;DHT22;9779;51.756;7.450;2023-06-24T16:06:44;35.30;1.00
19292;DHT22;9779;51.756;7.450;2023-06-24T16:09:09;35.40;1.00
19292;DHT22;9779;51.756;7.450;2023-06-24T16:11:35;35.40;1.00